Time;durP1;ratioP1;P1;durP2;ratioP2;P2;SDS_P1;SDS_P2;PMS_P1;PMS_P2;Temp;Humidity;BMP_temperature;BMP_pressure;BME280_temperature;BME280_humidity;BME280_pressure;Samples;Min_cycle;Max_cycle;Signal;HPM_P1;HPM_P2
2023/03/15 00:01:45;;;;;;;4.90;3.83;;;5.00;1.00;;;;;;5050587;28;20258;-55
2023/03/15 00:04:14;;;;;;;7.00;2.47;;;4.90;1.00;;;;;;5047668;28;20197;-54
2023/03/15 00:06:39;;;;;;;6.17;1.90;;;4.90;1.00;;;;;;5041149;28;20872;-55
2023/03/15 00:09:05;;;;;;;4.67;2.17;;;4.90;1.00;;;;;;5040355;28;20487;-54
2023/03/15 00:11:31;;;;;;;5.40;2.10;;;5.00;1.00;;;;;;5039982;28;20189;-55
2023/03/15 00:13:57;;;;;;;5.97;2.70;;;4.90;1.00;;;;;;5043833;28;20300;-55
2023/03/15 00:16:25;;;;;;;7.60;2.13;;;4.90;1.00;;;;;;5045412;28;20246;-54
2023/03/15 00:18:53;;;;;;;7.60;1.80;;;5.00;1.00;;;;;;5045866;28;20443;-56
2023/03/15 00:21:18;;;;;;;3.30;1.50;;;4.90;1.00;;;;;;5045481;28;20539;-54
2023/03/15 00:23:44;;;;;;;5.60;1.80;;;5.00;1.00;;;;;;5047370;28;20526;-55
2023/03/15 00:26:10;;;;;;;8.77;1.90;;;4.90;1.00;;;;;;5045837;28;20189;-54
2023/03/15 00:28:36;;;;;;;7.87;2.63;;;4.90;1.00;;;;;;5047406;28;20604;-54
2023/03/15 00:31:21;;;;;;;8.07;2.13;;;5.00;1.00;;;;;;5050659;28;21007;-54
2023/03/15 00:33:48;;;;;;;3.90;1.80;;;5.00;1.00;;;;;;5049264;28;20211;-55
2023/03/15 00:36:14;;;;;;;3.17;1.33;;;5.00;1.00;;;;;;5041273;28;20486;-54
2023/03/15 00:38:42;;;;;;;5.80;1.60;;;5.00;1.00;;;;;;5038514;28;20470;-55
2023/03/15 00:41:14;;;;;;;6.00;1.93;;;5.00;1.00;;;;;;5039187;28;20493;-54
2023/03/15 00:43:41;;;;;;;4.50;1.70;;;5.10;1.00;;;;;;5037421;28;20478;-55
2023/03/15 00:46:07;;;;;;;6.83;1.93;;;5.20;1.00;;;;;;5039915;28;20451;-55
2023/03/15 00:48:34;;;;;;;9.60;1.90;;;5.20;1.00;;;;;;5038672;28;20455;-55
2023/03/15 00:51:07;;;;;;;6.87;1.77;;;5.30;1.00;;;;;;5050962;28;20841;-55
2023/03/15 00:53:34;;;;;;;5.73;2.73;;;5.20;1.00;;;;;;5049259;28;20473;-56
2023/03/15 00:56:05;;;;;;;6.03;2.00;;;5.10;1.00;;;;;;5044940;28;20446;-56
2023/03/15 00:58:31;;;;;;;5.97;2.00;;;5.20;1.00;;;;;;5041585;28;20524;-56
2023/03/15 01:00:57;;;;;;;5.67;1.60;;;5.10;1.00;;;;;;5039707;28;20458;-54
2023/03/15 01:03:22;;;;;;;6.50;1.60;;;5.20;1.00;;;;;;5044905;28;20207;-54
2023/03/15 01:05:48;;;;;;;7.10;1.90;;;5.10;1.00;;;;;;5037546;28;20235;-54
2023/03/15 01:08:13;;;;;;;6.43;1.47;;;5.10;1.00;;;;;;5047561;28;20660;-53
2023/03/15 01:10:39;;;;;;;5.80;2.20;;;5.00;1.00;;;;;;5036092;28;20201;-55
2023/03/15 01:13:06;;;;;;;4.63;1.67;;;5.00;1.00;;;;;;5039884;28;20303;-53
2023/03/15 01:15:31;;;;;;;7.97;2.03;;;5.00;1.00;;;;;;5040416;28;20230;-55
2023/03/15 01:17:57;;;;;;;6.40;1.93;;;4.90;1.00;;;;;;5041126;28;20451;-54
2023/03/15 01:20:23;;;;;;;4.67;1.50;;;4.90;1.00;;;;;;5045903;28;20278;-53
2023/03/15 01:22:48;;;;;;;11.43;2.30;;;4.90;1.00;;;;;;5043018;28;20223;-55
2023/03/15 01:25:14;;;;;;;6.63;1.87;;;4.90;1.00;;;;;;5045800;28;20219;-55
2023/03/15 01:27:40;;;;;;;9.70;2.20;;;4.80;1.00;;;;;;5044088;28;20242;-54
2023/03/15 01:30:06;;;;;;;3.90;1.60;;;4.80;1.00;;;;;;5043254;28;21982;-53
2023/03/15 01:32:31;;;;;;;6.50;1.50;;;4.80;1.00;;;;;;5043592;28;20565;-55
2023/03/15 01:34:57;;;;;;;6.47;1.83;;;4.90;1.00;;;;;;5046624;28;20473;-54
2023/03/15 01:37:23;;;;;;;8.20;1.83;;;4.80;1.00;;;;;;5053225;28;20255;-54
2023/03/15 01:39:49;;;;;;;5.70;1.47;;;4.90;1.00;;;;;;5046551;28;20192;-54
2023/03/15 01:42:15;;;;;;;5.30;1.73;;;5.00;1.00;;;;;;5044725;28;20458;-55
2023/03/15 01:44:58;;;;;;;14.57;2.03;;;4.90;1.00;;;;;;5044898;28;20417;-54
2023/03/15 01:47:25;;;;;;;6.30;1.60;;;4.90;1.00;;;;;;5045722;28;21057;-55
2023/03/15 01:50:08;;;;;;;6.97;1.47;;;4.90;1.00;;;;;;5045159;28;20455;-54
2023/03/15 01:52:37;;;;;;;6.80;1.50;;;4.90;1.00;;;;;;5045664;28;20956;-54
2023/03/15 01:55:09;;;;;;;2.73;1.60;;;4.90;1.00;;;;;;5042390;28;20931;-54
2023/03/15 01:57:50;;;;;;;5.67;1.43;;;4.80;1.00;;;;;;5046507;28;20504;-55
2023/03/15 02:00:18;;;;;;;7.90;2.17;;;4.80;1.00;;;;;;5047515;28;20520;-53
2023/03/15 02:03:13;;;;;;;6.13;1.70;;;4.80;1.00;;;;;;5038886;28;20448;-55
2023/03/15 02:05:44;;;;;;;9.70;2.10;;;4.90;1.00;;;;;;5039113;28;20538;-55
2023/03/15 02:08:14;;;;;;;3.63;1.73;;;4.90;1.00;;;;;;5045564;28;20439;-54
2023/03/15 02:10:46;;;;;;;5.50;1.43;;;4.90;1.00;;;;;;5040427;28;20440;-54
2023/03/15 02:13:16;;;;;;;6.27;2.17;;;4.90;1.00;;;;;;5051015;28;20466;-55
2023/03/15 02:15:45;;;;;;;5.63;2.47;;;5.00;1.00;;;;;;5043625;28;20492;-54
2023/03/15 02:18:16;;;;;;;4.57;1.53;;;4.80;1.00;;;;;;5045892;28;20451;-53
2023/03/15 02:20:52;;;;;;;6.10;1.30;;;4.80;1.00;;;;;;5044639;28;20812;-54
2023/03/15 02:23:21;;;;;;;3.13;1.80;;;4.90;1.00;;;;;;5041762;28;20485;-53
2023/03/15 02:26:14;;;;;;;6.50;1.60;;;4.90;1.00;;;;;;5041593;28;20454;-55
2023/03/15 02:28:41;;;;;;;5.50;1.47;;;4.90;1.00;;;;;;5040950;28;21026;-55
2023/03/15 02:31:07;;;;;;;9.27;1.57;;;4.90;1.00;;;;;;5042527;28;20454;-53
2023/03/15 02:33:54;;;;;;;9.47;2.47;;;5.00;1.00;;;;;;5049528;28;20581;-55
2023/03/15 02:36:28;;;;;;;2.13;1.63;;;5.00;1.00;;;;;;5035717;28;20204;-54
2023/03/15 02:38:55;;;;;;;3.10;1.80;;;4.90;1.00;;;;;;5036233;28;20448;-55
2023/03/15 02:41:35;;;;;;;7.20;1.90;;;4.80;1.00;;;;;;5036563;28;20455;-54
2023/03/15 02:44:06;;;;;;;6.17;2.20;;;4.70;1.00;;;;;;5043598;28;20451;-55
2023/03/15 02:46:31;;;;;;;7.87;2.07;;;4.80;1.00;;;;;;5053541;28;20535;-54
2023/03/15 02:48:58;;;;;;;3.63;1.40;;;4.90;1.00;;;;;;5065281;28;20890;-55
2023/03/15 02:51:27;;;;;;;10.27;2.20;;;4.60;1.00;;;;;;5041149;28;20230;-53
2023/03/15 02:53:53;;;;;;;12.93;1.90;;;4.80;1.00;;;;;;5045049;28;20485;-53
2023/03/15 02:56:18;;;;;;;9.17;2.30;;;4.80;1.00;;;;;;5047713;28;20832;-53
2023/03/15 02:58:44;;;;;;;5.60;1.67;;;4.80;1.00;;;;;;5050988;28;20256;-54
2023/03/15 03:01:12;;;;;;;1.70;1.43;;;4.80;1.00;;;;;;5051092;28;20447;-55
2023/03/15 03:03:41;;;;;;;10.37;2.07;;;4.90;1.00;;;;;;5046952;28;20203;-54
2023/03/15 03:06:08;;;;;;;8.87;2.37;;;4.80;1.00;;;;;;5041800;28;20543;-55
2023/03/15 03:08:34;;;;;;;7.53;2.07;;;4.80;1.00;;;;;;5045635;28;20481;-55
2023/03/15 03:10:59;;;;;;;7.77;1.60;;;4.70;1.00;;;;;;5052370;28;20468;-54
2023/03/15 03:13:25;;;;;;;6.87;1.90;;;4.80;1.00;;;;;;5042830;28;20218;-53
2023/03/15 03:15:57;;;;;;;6.00;1.97;;;4.80;1.00;;;;;;5045789;28;20191;-53
2023/03/15 03:18:24;;;;;;;5.97;1.50;;;4.80;1.00;;;;;;5046116;28;20659;-55
2023/03/15 03:20:49;;;;;;;9.67;1.87;;;4.80;1.00;;;;;;5046899;28;20866;-55
2023/03/15 03:23:15;;;;;;;3.57;1.67;;;4.80;1.00;;;;;;5044932;28;20446;-54
2023/03/15 03:25:41;;;;;;;4.63;2.43;;;4.70;1.00;;;;;;5041933;28;20188;-54
2023/03/15 03:28:06;;;;;;;2.63;2.00;;;4.70;1.00;;;;;;5046213;28;20238;-55
2023/03/15 03:30:34;;;;;;;8.63;2.87;;;4.70;1.00;;;;;;5053173;28;20600;-54
2023/03/15 03:33:00;;;;;;;5.80;1.63;;;4.90;1.00;;;;;;5045860;28;20226;-54
2023/03/15 03:35:25;;;;;;;6.27;1.67;;;4.90;1.00;;;;;;5049429;28;20479;-53
2023/03/15 03:37:52;;;;;;;4.60;2.00;;;4.70;1.00;;;;;;5047582;28;20522;-54
2023/03/15 03:40:18;;;;;;;8.30;2.03;;;4.60;1.00;;;;;;5039076;28;20193;-56
2023/03/15 03:42:43;;;;;;;2.20;1.17;;;4.50;1.00;;;;;;5043393;28;20809;-53
2023/03/15 03:45:09;;;;;;;5.03;2.27;;;4.40;1.00;;;;;;5049168;28;20641;-55
2023/03/15 03:47:35;;;;;;;6.40;1.67;;;4.30;1.00;;;;;;5047101;28;20196;-53
2023/03/15 03:50:01;;;;;;;6.97;2.87;;;4.20;1.00;;;;;;5043014;28;20453;-53
2023/03/15 03:52:26;;;;;;;5.40;1.77;;;4.30;1.00;;;;;;5045888;28;20192;-54
2023/03/15 03:54:52;;;;;;;2.87;2.20;;;4.30;1.00;;;;;;5048721;28;20335;-54
2023/03/15 03:57:17;;;;;;;8.63;1.73;;;4.20;1.00;;;;;;5050398;28;20211;-53
2023/03/15 03:59:43;;;;;;;1.83;1.33;;;4.20;1.00;;;;;;5048518;28;20195;-54
2023/03/15 04:02:09;;;;;;;8.40;2.23;;;4.20;1.00;;;;;;5045759;28;20654;-54
2023/03/15 04:04:35;;;;;;;3.03;1.30;;;4.20;1.00;;;;;;5046813;28;20183;-54
2023/03/15 04:07:01;;;;;;;7.30;1.93;;;4.30;1.00;;;;;;5051294;28;20503;-55
2023/03/15 04:09:26;;;;;;;5.47;1.50;;;4.30;1.00;;;;;;5056819;28;20446;-53
2023/03/15 04:11:52;;;;;;;5.87;1.70;;;4.50;1.00;;;;;;5049568;28;20768;-55
2023/03/15 04:14:18;;;;;;;7.43;2.03;;;4.60;1.00;;;;;;5050749;28;20886;-55
2023/03/15 04:16:43;;;;;;;4.63;1.87;;;4.50;1.00;;;;;;5048913;28;20258;-54
2023/03/15 04:19:11;;;;;;;3.37;1.47;;;4.60;1.00;;;;;;5048745;28;20206;-54
2023/03/15 04:21:37;;;;;;;3.90;1.20;;;4.50;1.00;;;;;;5052849;28;22066;-54
2023/03/15 04:24:03;;;;;;;2.57;1.50;;;4.40;1.00;;;;;;5052000;28;20458;-54
2023/03/15 04:26:29;;;;;;;7.20;2.50;;;4.40;1.00;;;;;;5049009;28;20276;-53
2023/03/15 04:28:56;;;;;;;7.87;1.27;;;4.50;1.00;;;;;;5049123;28;20809;-54
2023/03/15 04:31:25;;;;;;;6.90;1.70;;;4.40;1.00;;;;;;5045664;28;21008;-53
2023/03/15 04:33:55;;;;;;;3.00;1.47;;;4.50;1.00;;;;;;5049377;28;20974;-54
2023/03/15 04:36:22;;;;;;;7.27;1.43;;;4.40;1.00;;;;;;5050206;28;20467;-53
2023/03/15 04:38:48;;;;;;;4.60;1.87;;;4.40;1.00;;;;;;5060263;28;20925;-54
2023/03/15 04:41:16;;;;;;;7.50;2.17;;;4.40;1.00;;;;;;5048905;28;20781;-56
2023/03/15 04:43:41;;;;;;;6.00;1.70;;;4.40;1.00;;;;;;5046758;28;20505;-53
2023/03/15 04:46:07;;;;;;;6.43;1.73;;;4.40;1.00;;;;;;5050195;28;20545;-53
2023/03/15 04:48:33;;;;;;;6.10;1.70;;;4.40;1.00;;;;;;5047890;28;20203;-53
2023/03/15 04:50:59;;;;;;;4.47;1.53;;;4.40;1.00;;;;;;5049658;28;20451;-55
2023/03/15 04:53:25;;;;;;;2.50;1.70;;;4.30;1.00;;;;;;5050884;28;20502;-53
2023/03/15 04:55:51;;;;;;;7.57;1.40;;;4.40;1.00;;;;;;5051056;28;20712;-55
2023/03/15 04:58:17;;;;;;;8.07;1.63;;;4.40;1.00;;;;;;5053319;28;20220;-56
2023/03/15 05:00:42;;;;;;;7.30;1.30;;;4.40;1.00;;;;;;5050798;28;20176;-56
2023/03/15 05:03:08;;;;;;;3.93;1.53;;;4.40;1.00;;;;;;5049634;28;20198;-53
2023/03/15 05:05:33;;;;;;;4.67;1.50;;;4.40;1.00;;;;;;5048017;28;20652;-53
2023/03/15 05:07:59;;;;;;;9.33;2.60;;;4.50;1.00;;;;;;5046541;28;20192;-53
2023/03/15 05:10:25;;;;;;;2.93;1.80;;;4.30;1.00;;;;;;5048342;28;20184;-53
2023/03/15 05:12:51;;;;;;;5.80;1.50;;;4.40;1.00;;;;;;5049401;28;20797;-55
2023/03/15 05:15:17;;;;;;;8.60;2.40;;;4.50;1.00;;;;;;5047280;28;20188;-54
2023/03/15 05:17:47;;;;;;;4.83;1.40;;;4.40;1.00;;;;;;5047430;28;20273;-54
2023/03/15 05:20:14;;;;;;;7.07;1.50;;;4.40;1.00;;;;;;5045813;28;20800;-55
2023/03/15 05:22:41;;;;;;;4.43;1.37;;;4.40;1.00;;;;;;5047923;28;20447;-55
2023/03/15 05:25:09;;;;;;;2.70;1.40;;;4.30;1.00;;;;;;5044740;28;20504;-53
2023/03/15 05:27:35;;;;;;;10.50;2.37;;;4.20;1.00;;;;;;5050020;28;20491;-55
2023/03/15 05:30:04;;;;;;;5.10;2.10;;;4.20;1.00;;;;;;5043010;28;20465;-55
2023/03/15 05:32:33;;;;;;;2.50;1.50;;;4.20;1.00;;;;;;5044346;28;20458;-56
2023/03/15 05:35:00;;;;;;;5.20;1.77;;;4.30;1.00;;;;;;5045149;28;20526;-54
2023/03/15 05:37:26;;;;;;;11.20;2.00;;;4.20;1.00;;;;;;5042502;28;20772;-55
2023/03/15 05:39:51;;;;;;;7.93;2.47;;;4.20;1.00;;;;;;5042660;28;20505;-55
2023/03/15 05:42:24;;;;;;;6.10;1.50;;;4.20;1.00;;;;;;5045541;28;20216;-55
2023/03/15 05:44:50;;;;;;;5.37;2.60;;;4.20;1.00;;;;;;5042779;28;20338;-55
2023/03/15 05:47:15;;;;;;;4.93;1.77;;;4.20;1.00;;;;;;5043374;28;20544;-53
2023/03/15 05:49:41;;;;;;;6.97;2.77;;;4.20;1.00;;;;;;5044517;28;20459;-53
2023/03/15 05:52:07;;;;;;;6.90;1.87;;;4.20;1.00;;;;;;5042866;28;20184;-56
2023/03/15 05:54:32;;;;;;;3.20;1.70;;;4.20;1.00;;;;;;5046814;28;20225;-54
2023/03/15 05:56:58;;;;;;;5.23;2.33;;;4.30;1.00;;;;;;5051381;28;20195;-54
2023/03/15 05:59:23;;;;;;;6.13;2.13;;;4.30;1.00;;;;;;5051148;28;20185;-55
2023/03/15 06:01:49;;;;;;;4.33;1.50;;;4.30;1.00;;;;;;5049473;28;20711;-53
2023/03/15 06:04:14;;;;;;;9.07;1.87;;;4.40;1.00;;;;;;5048655;28;20184;-54
2023/03/15 06:06:40;;;;;;;5.10;1.37;;;4.50;1.00;;;;;;5048527;28;20206;-54
2023/03/15 06:09:06;;;;;;;28.27;9.63;;;4.50;1.00;;;;;;5056743;28;20200;-55
2023/03/15 06:11:31;;;;;;;6.80;3.50;;;4.60;1.00;;;;;;5049657;28;20238;-55
2023/03/15 06:13:57;;;;;;;6.70;1.73;;;4.70;1.00;;;;;;5049509;28;20223;-54
2023/03/15 06:16:22;;;;;;;4.27;2.50;;;4.70;1.00;;;;;;5052616;28;20185;-54
2023/03/15 06:18:48;;;;;;;23.00;11.50;;;4.80;1.00;;;;;;5050343;28;20595;-54
2023/03/15 06:21:14;;;;;;;4.87;2.50;;;4.80;1.00;;;;;;5067042;28;20199;-54
2023/03/15 06:23:39;;;;;;;5.43;1.90;;;4.80;1.00;;;;;;5049356;28;20242;-54
2023/03/15 06:26:05;;;;;;;12.27;3.10;;;4.80;1.00;;;;;;5045084;28;20204;-56
2023/03/15 06:28:30;;;;;;;4.83;2.60;;;4.80;1.00;;;;;;5047443;28;20574;-55
2023/03/15 06:30:56;;;;;;;6.70;2.83;;;4.90;1.00;;;;;;5044917;28;20200;-55
2023/03/15 06:33:23;;;;;;;6.63;3.23;;;4.90;1.00;;;;;;5042937;28;20249;-54
2023/03/15 06:35:49;;;;;;;12.30;2.00;;;5.00;1.00;;;;;;5045440;28;20602;-55
2023/03/15 06:38:14;;;;;;;5.70;2.23;;;5.00;1.00;;;;;;5047519;28;20540;-54
2023/03/15 06:40:40;;;;;;;5.30;1.83;;;5.00;1.00;;;;;;5046923;28;20447;-54
2023/03/15 06:43:06;;;;;;;9.83;2.83;;;5.10;1.00;;;;;;5046696;28;20196;-53
2023/03/15 06:45:32;;;;;;;8.10;2.40;;;5.10;1.00;;;;;;5047846;28;20180;-54
2023/03/15 06:47:58;;;;;;;8.90;2.20;;;5.30;1.00;;;;;;5044885;28;20262;-55
2023/03/15 06:50:24;;;;;;;6.57;2.07;;;5.30;1.00;;;;;;5045257;28;21193;-55
2023/03/15 06:52:49;;;;;;;6.10;1.97;;;5.30;1.00;;;;;;5046580;28;20187;-54
2023/03/15 06:55:17;;;;;;;8.77;2.17;;;5.40;1.00;;;;;;5047829;28;20531;-54
2023/03/15 06:57:43;;;;;;;7.97;2.37;;;5.70;1.00;;;;;;5048707;28;20188;-55
2023/03/15 07:00:10;;;;;;;6.37;2.03;;;5.90;1.00;;;;;;5048245;28;20485;-54
2023/03/15 07:02:36;;;;;;;8.83;2.57;;;6.10;1.00;;;;;;5048517;28;20450;-54
2023/03/15 07:05:05;;;;;;;11.30;2.80;;;6.40;1.00;;;;;;5052859;28;20446;-54
2023/03/15 07:07:31;;;;;;;4.93;2.80;;;6.50;1.00;;;;;;5053649;28;20437;-54
2023/03/15 07:09:56;;;;;;;7.10;2.33;;;6.50;1.00;;;;;;5052043;28;20450;-54
2023/03/15 07:12:22;;;;;;;3.00;1.70;;;6.60;1.00;;;;;;5055821;28;20241;-54
2023/03/15 07:14:48;;;;;;;5.50;2.00;;;6.70;1.00;;;;;;5052296;28;20216;-54
2023/03/15 07:17:14;;;;;;;7.37;1.80;;;6.80;1.00;;;;;;5054194;28;20238;-55
2023/03/15 07:19:40;;;;;;;7.43;2.37;;;6.80;1.00;;;;;;5046538;28;20447;-56
2023/03/15 07:22:05;;;;;;;6.10;1.80;;;6.80;1.00;;;;;;5050054;28;20473;-55
2023/03/15 07:24:31;;;;;;;6.10;1.67;;;6.90;1.00;;;;;;5049757;28;20196;-55
2023/03/15 07:26:57;;;;;;;5.57;1.63;;;6.90;1.00;;;;;;5050369;28;20459;-55
2023/03/15 07:29:23;;;;;;;5.60;2.07;;;7.00;1.00;;;;;;5049349;28;20181;-54
2023/03/15 07:31:49;;;;;;;6.03;1.93;;;7.00;1.00;;;;;;5051779;28;20682;-54
2023/03/15 07:34:15;;;;;;;9.90;2.90;;;6.90;1.00;;;;;;5047694;28;22281;-54
2023/03/15 07:36:40;;;;;;;5.47;1.80;;;6.90;1.00;;;;;;5055580;28;20464;-54
2023/03/15 07:39:06;;;;;;;3.97;1.63;;;6.90;1.00;;;;;;5049552;28;20188;-54
2023/03/15 07:41:31;;;;;;;11.80;2.50;;;7.10;1.00;;;;;;5050748;28;20542;-54
2023/03/15 07:43:57;;;;;;;10.47;2.10;;;7.20;1.00;;;;;;5048965;28;20268;-54
2023/03/15 07:46:23;;;;;;;6.20;2.10;;;7.30;1.00;;;;;;5053233;28;20185;-55
2023/03/15 07:48:48;;;;;;;6.10;1.87;;;7.20;1.00;;;;;;5063192;28;20579;-55
2023/03/15 07:51:14;;;;;;;4.30;1.70;;;7.00;1.00;;;;;;5042564;28;20193;-54
2023/03/15 07:53:39;;;;;;;5.37;2.20;;;7.20;1.00;;;;;;5052714;28;20716;-55
2023/03/15 07:56:05;;;;;;;8.83;1.63;;;7.20;1.00;;;;;;5051806;28;20196;-55
2023/03/15 07:58:31;;;;;;;7.10;2.13;;;7.40;1.00;;;;;;5048424;28;20262;-53
2023/03/15 08:00:57;;;;;;;6.07;1.83;;;7.10;1.00;;;;;;5049894;28;20446;-54
2023/03/15 08:03:23;;;;;;;4.90;1.90;;;6.70;1.00;;;;;;5055887;28;20196;-54
2023/03/15 08:05:49;;;;;;;5.67;2.00;;;6.70;1.00;;;;;;5050253;28;20760;-55
2023/03/15 08:08:15;;;;;;;3.10;1.40;;;6.80;1.00;;;;;;5047526;28;20944;-55
2023/03/15 08:10:42;;;;;;;3.20;1.87;;;7.00;1.00;;;;;;5049482;28;20455;-55
2023/03/15 08:13:08;;;;;;;6.00;1.50;;;7.30;1.00;;;;;;5048599;28;20200;-54
2023/03/15 08:15:33;;;;;;;3.50;1.63;;;7.50;1.00;;;;;;5048591;28;20979;-53
2023/03/15 08:17:59;;;;;;;7.83;1.97;;;7.80;1.00;;;;;;5058896;28;20196;-54
2023/03/15 08:20:26;;;;;;;7.20;2.23;;;8.00;1.00;;;;;;5047968;28;20644;-53
2023/03/15 08:22:51;;;;;;;2.60;1.30;;;7.80;1.00;;;;;;5050462;28;20525;-54
2023/03/15 08:25:20;;;;;;;4.70;1.50;;;7.70;1.00;;;;;;5047730;28;21592;-53
2023/03/15 08:27:48;;;;;;;4.77;1.37;;;7.70;1.00;;;;;;5049245;28;20566;-57
2023/03/15 08:30:15;;;;;;;5.97;1.97;;;7.40;1.00;;;;;;5045901;28;20453;-54
2023/03/15 08:32:43;;;;;;;7.17;1.90;;;7.50;1.00;;;;;;5050841;28;20797;-54
2023/03/15 08:35:11;;;;;;;5.00;1.50;;;7.30;1.00;;;;;;5048166;28;20506;-54
2023/03/15 08:37:37;;;;;;;5.63;1.60;;;7.20;1.00;;;;;;5050485;28;20461;-55
2023/03/15 08:40:08;;;;;;;5.73;1.70;;;7.20;1.00;;;;;;5044109;28;20485;-54
2023/03/15 08:42:35;;;;;;;7.03;2.07;;;7.10;1.00;;;;;;5048811;28;20995;-53
2023/03/15 08:45:02;;;;;;;3.73;1.67;;;7.10;1.00;;;;;;5048061;28;20579;-55
2023/03/15 08:47:27;;;;;;;4.80;1.70;;;7.10;1.00;;;;;;5050784;28;20446;-54
2023/03/15 08:49:53;;;;;;;8.20;1.57;;;7.00;1.00;;;;;;5050504;28;20471;-54
2023/03/15 08:52:20;;;;;;;7.17;2.30;;;6.80;1.00;;;;;;5059915;28;20195;-55
2023/03/15 08:54:46;;;;;;;3.10;1.57;;;6.60;1.00;;;;;;5043994;28;20234;-54
2023/03/15 08:57:12;;;;;;;3.27;1.53;;;6.30;1.00;;;;;;5041057;28;20450;-54
2023/03/15 08:59:38;;;;;;;6.73;2.47;;;6.10;1.00;;;;;;5039966;28;20965;-54
2023/03/15 09:02:05;;;;;;;6.03;2.37;;;5.90;1.00;;;;;;5045659;28;20190;-54
2023/03/15 09:04:32;;;;;;;9.87;2.70;;;5.80;1.00;;;;;;5049004;28;20465;-54
2023/03/15 09:06:58;;;;;;;11.27;2.63;;;5.60;1.00;;;;;;5046660;28;20455;-55
2023/03/15 09:09:23;;;;;;;5.00;1.90;;;5.50;1.00;;;;;;5050253;28;20496;-54
2023/03/15 09:11:49;;;;;;;5.80;2.03;;;5.50;1.00;;;;;;5050045;28;20218;-53
2023/03/15 09:14:15;;;;;;;9.43;2.47;;;5.40;1.00;;;;;;5058808;28;20244;-54
2023/03/15 09:16:41;;;;;;;11.13;3.23;;;5.50;1.00;;;;;;5045072;28;20258;-55
2023/03/15 09:19:06;;;;;;;3.40;2.33;;;5.50;1.00;;;;;;5048419;28;20185;-55
2023/03/15 09:21:32;;;;;;;3.17;1.90;;;5.60;1.00;;;;;;5044966;28;20191;-54
2023/03/15 09:23:58;;;;;;;2.90;2.00;;;5.80;1.00;;;;;;5047066;28;20200;-54
2023/03/15 09:26:24;;;;;;;2.90;2.00;;;5.80;1.00;;;;;;5045611;28;20459;-54
2023/03/15 09:28:49;;;;;;;10.27;2.50;;;6.40;1.00;;;;;;5050290;28;20195;-55
2023/03/15 09:31:15;;;;;;;6.83;1.60;;;6.70;1.00;;;;;;5066590;28;20641;-55
2023/03/15 09:33:41;;;;;;;9.60;2.13;;;6.90;1.00;;;;;;5049494;28;20294;-54
2023/03/15 09:36:06;;;;;;;4.83;2.23;;;7.20;1.00;;;;;;5049019;28;20290;-54
2023/03/15 09:38:32;;;;;;;4.57;2.33;;;7.50;1.00;;;;;;5047765;28;20681;-55
2023/03/15 09:40:58;;;;;;;6.10;2.23;;;7.80;1.00;;;;;;5050424;28;20208;-54
2023/03/15 09:44:00;;;;;;;8.53;2.77;;;8.20;1.00;;;;;;5049616;28;20188;-54
2023/03/15 09:46:39;;;;;;;4.90;2.07;;;8.30;1.00;;;;;;5045326;28;20465;-56
2023/03/15 09:49:23;;;;;;;7.77;2.40;;;8.10;1.00;;;;;;5048606;28;20482;-54
2023/03/15 09:52:03;;;;;;;5.77;2.00;;;8.10;1.00;;;;;;5045528;28;20450;-53
2023/03/15 09:54:50;;;;;;;7.80;2.87;;;8.10;1.00;;;;;;5039949;28;20486;-54
2023/03/15 09:57:58;;;;;;;5.97;2.03;;;8.20;1.00;;;;;;5045099;28;20538;-53
2023/03/15 10:00:44;;;;;;;5.10;2.27;;;7.70;1.00;;;;;;5044750;28;20975;-54
2023/03/15 10:03:20;;;;;;;4.80;2.30;;;7.00;1.00;;;;;;5046347;28;20439;-53
2023/03/15 10:05:54;;;;;;;4.40;2.00;;;6.60;1.00;;;;;;5051066;28;20461;-55
2023/03/15 10:08:20;;;;;;;9.00;2.10;;;6.60;1.00;;;;;;5049672;28;20446;-55
2023/03/15 10:11:04;;;;;;;7.93;2.33;;;6.60;1.00;;;;;;5049569;28;20431;-54
2023/03/15 10:14:14;;;;;;;6.37;2.60;;;6.80;1.00;;;;;;5049413;28;20467;-54
2023/03/15 10:16:45;;;;;;;6.10;2.53;;;6.80;1.00;;;;;;5033762;28;20820;-53
2023/03/15 10:19:35;;;;;;;4.97;2.60;;;6.70;1.00;;;;;;5050288;28;20805;-54
2023/03/15 10:22:11;;;;;;;5.80;2.50;;;6.40;1.00;;;;;;5049199;28;20442;-55
2023/03/15 10:24:49;;;;;;;5.20;2.00;;;6.20;1.00;;;;;;5049550;28;20446;-55
2023/03/15 10:27:27;;;;;;;5.07;2.53;;;6.20;1.00;;;;;;5049084;28;20434;-54
2023/03/15 10:29:56;;;;;;;8.03;2.73;;;6.40;1.00;;;;;;5049074;28;20594;-53
2023/03/15 10:32:27;;;;;;;6.37;2.10;;;6.50;1.00;;;;;;5048941;28;20431;-55
2023/03/15 10:34:55;;;;;;;4.33;2.13;;;6.20;1.00;;;;;;5050044;28;21053;-53
2023/03/15 10:37:23;;;;;;;3.37;2.17;;;6.20;1.00;;;;;;5048661;28;20438;-54
2023/03/15 10:39:57;;;;;;;4.80;1.90;;;6.10;1.00;;;;;;5048965;28;20451;-55
2023/03/15 10:42:29;;;;;;;3.97;1.80;;;6.20;1.00;;;;;;5048866;28;20970;-54
2023/03/15 10:44:55;;;;;;;3.17;1.90;;;6.20;1.00;;;;;;5048394;28;20982;-54
2023/03/15 10:47:22;;;;;;;4.63;2.53;;;6.30;1.00;;;;;;5049210;28;20431;-54
2023/03/15 10:49:49;;;;;;;4.73;2.43;;;6.50;1.00;;;;;;5049360;28;20446;-55
2023/03/15 10:52:34;;;;;;;3.27;1.80;;;6.40;1.00;;;;;;5048969;28;20450;-53
2023/03/15 10:55:05;;;;;;;2.17;1.80;;;6.40;1.00;;;;;;5048715;28;20474;-54
2023/03/15 10:57:38;;;;;;;6.53;2.50;;;6.50;1.00;;;;;;5048871;28;20616;-54
2023/03/15 11:00:19;;;;;;;5.10;2.30;;;6.50;1.00;;;;;;5048513;28;20576;-52
2023/03/15 11:02:50;;;;;;;3.93;2.57;;;6.50;1.00;;;;;;5048923;28;20492;-56
2023/03/15 11:05:17;;;;;;;4.27;2.30;;;6.90;1.00;;;;;;5049750;28;20482;-55
2023/03/15 11:07:57;;;;;;;4.30;2.40;;;7.30;1.00;;;;;;5048939;28;20450;-54
2023/03/15 11:10:26;;;;;;;6.43;2.10;;;7.20;1.00;;;;;;5047276;28;20453;-55
2023/03/15 11:13:12;;;;;;;3.17;2.10;;;7.20;1.00;;;;;;5048384;28;20434;-54
2023/03/15 11:15:40;;;;;;;4.33;1.80;;;7.40;1.00;;;;;;5048838;28;20439;-53
2023/03/15 11:18:12;;;;;;;8.53;2.33;;;7.50;1.00;;;;;;5048775;28;20442;-55
2023/03/15 11:20:39;;;;;;;3.17;2.40;;;7.60;1.00;;;;;;5057899;28;20430;-55
2023/03/15 11:23:14;;;;;;;3.10;2.20;;;7.60;1.00;;;;;;5050186;28;20467;-54
2023/03/15 11:25:40;;;;;;;7.20;3.93;;;7.40;1.00;;;;;;5047939;28;20426;-55
2023/03/15 11:28:10;;;;;;;3.77;2.00;;;7.40;1.00;;;;;;5048422;28;20431;-55
2023/03/15 11:30:40;;;;;;;4.37;1.70;;;7.30;1.00;;;;;;5046661;28;20180;-55
2023/03/15 11:33:08;;;;;;;6.50;2.67;;;7.30;1.00;;;;;;5046855;28;20452;-54
2023/03/15 11:35:48;;;;;;;2.93;1.87;;;7.30;1.00;;;;;;5063421;28;21093;-54
2023/03/15 11:38:24;;;;;;;2.50;1.80;;;7.40;1.00;;;;;;5048960;28;20434;-54
2023/03/15 11:40:55;;;;;;;6.73;2.63;;;7.50;1.00;;;;;;5048532;28;20430;-55
2023/03/15 11:43:39;;;;;;;4.00;2.10;;;7.60;1.00;;;;;;5057290;28;20479;-55
2023/03/15 11:46:28;;;;;;;2.93;1.93;;;7.60;1.00;;;;;;5067930;28;20919;-54
2023/03/15 11:49:13;;;;;;;5.67;2.10;;;7.70;1.00;;;;;;5068142;28;20517;-53
2023/03/15 11:51:39;;;;;;;4.70;1.63;;;7.70;1.00;;;;;;5051338;28;20497;-54
2023/03/15 11:54:14;;;;;;;4.40;2.27;;;7.90;1.00;;;;;;5051750;28;20605;-54
2023/03/15 11:56:42;;;;;;;3.60;2.10;;;7.80;1.00;;;;;;5051406;28;20183;-54
2023/03/15 11:59:18;;;;;;;5.67;1.80;;;7.80;1.00;;;;;;5051506;28;20811;-56
2023/03/15 12:01:50;;;;;;;6.20;1.70;;;7.70;1.00;;;;;;5052378;28;20504;-54
2023/03/15 12:04:37;;;;;;;4.43;1.80;;;8.00;1.00;;;;;;5072145;28;20475;-56
2023/03/15 12:07:26;;;;;;;6.20;2.10;;;8.20;1.00;;;;;;5062531;28;20944;-56
2023/03/15 12:09:55;;;;;;;7.03;2.13;;;8.30;1.00;;;;;;5051999;28;20443;-56
2023/03/15 12:12:23;;;;;;;4.43;3.47;;;8.50;1.00;;;;;;5051848;28;20780;-56
2023/03/15 12:15:08;;;;;;;6.90;2.07;;;8.40;1.00;;;;;;5051576;28;20463;-56
2023/03/15 12:17:33;;;;;;;3.03;2.23;;;8.20;1.00;;;;;;5051708;28;20427;-56
2023/03/15 12:20:11;;;;;;;5.60;2.00;;;8.00;1.00;;;;;;5051520;28;20438;-56
2023/03/15 12:23:17;;;;;;;5.40;1.80;;;8.10;1.00;;;;;;5052301;28;20291;-57
2023/03/15 12:26:06;;;;;;;3.43;1.63;;;8.00;1.00;;;;;;5042435;28;20576;-57
2023/03/15 12:28:51;;;;;;;3.63;2.27;;;8.20;1.00;;;;;;5061259;28;20441;-56
2023/03/15 12:31:17;;;;;;;8.90;2.20;;;8.30;1.00;;;;;;5071253;28;20432;-57
2023/03/15 12:33:51;;;;;;;3.53;1.87;;;8.50;1.00;;;;;;5070512;28;20583;-56
2023/03/15 12:36:36;;;;;;;6.17;2.10;;;8.50;1.00;;;;;;5055968;28;20445;-56
2023/03/15 12:39:14;;;;;;;6.83;2.00;;;8.20;1.00;;;;;;5051146;28;20435;-56
2023/03/15 12:41:45;;;;;;;1.67;1.47;;;8.10;1.00;;;;;;5050827;28;20437;-55
2023/03/15 12:44:38;;;;;;;4.90;2.00;;;7.80;1.00;;;;;;5051372;28;20470;-54
2023/03/15 12:47:11;;;;;;;8.07;2.40;;;7.80;1.00;;;;;;5062650;28;21150;-55
2023/03/15 12:49:41;;;;;;;7.40;1.97;;;7.70;1.00;;;;;;5071147;28;20441;-55
2023/03/15 12:52:10;;;;;;;5.03;2.33;;;7.80;1.00;;;;;;5070833;28;20511;-53
2023/03/15 12:54:41;;;;;;;5.50;2.40;;;8.10;1.00;;;;;;5070499;28;20480;-56
2023/03/15 12:57:15;;;;;;;4.50;2.10;;;8.00;1.00;;;;;;5056950;28;20491;-56
2023/03/15 12:59:54;;;;;;;6.80;2.57;;;7.90;1.00;;;;;;5056016;28;20442;-55
2023/03/15 13:02:33;;;;;;;5.20;2.27;;;7.80;1.00;;;;;;5050136;28;20443;-54
2023/03/15 13:05:08;;;;;;;3.23;1.80;;;7.60;1.00;;;;;;5050988;28;20769;-54
2023/03/15 13:08:16;;;;;;;5.20;2.50;;;7.70;1.00;;;;;;5045900;28;20609;-54
2023/03/15 13:11:12;;;;;;;3.63;2.30;;;7.80;1.00;;;;;;5042268;28;20533;-54
2023/03/15 13:13:46;;;;;;;4.70;2.17;;;7.90;1.00;;;;;;5046979;28;20838;-55
2023/03/15 13:16:24;;;;;;;3.83;2.50;;;8.00;1.00;;;;;;5058744;28;20528;-56
2023/03/15 13:18:59;;;;;;;7.50;2.20;;;7.90;1.00;;;;;;5038749;28;20443;-56
2023/03/15 13:21:41;;;;;;;3.00;2.17;;;8.10;1.00;;;;;;5049315;28;20447;-54